METAR AND TAF INFORMATION
METAR FOR LIMW
ADDS - METARS form results

(0114 UTC 20 September 2019)
Data provider http://aviationweather.gov/metar/data/
 
Forecast for: LIMW (AOSTA ARPT , IT)
Text: TAF LIMW 191700Z 1918/2003 10015KT CAVOK
Forecast period: 1800 to 1900 UTC 19 September 2019
Forecast type: FROM: standard forecast or significant change
Winds: from the E (100 degrees) at 17 MPH (15 knots; 7.7 m/s)
Visibility: 6 or more miles 10+ km)
Ceiling: unknown
Clouds: missing
Weather: NSW  (no significant weather)
Text: BECMG 1919/1921 VRB05KT
Forecast period: 1900 UTC 19 September 2019 to 0300 UTC 20 September 2019
Forecast type: BECOMING: Conditions expected to become as follows by 2100 UTC 19 September 2019
Winds: variable direction winds at 6 MPH (5 knots; 2.6 m/s)
Visibility: 6 or more miles 10+ km)
Ceiling: unknown
Clouds: missing
Weather: NSW  (no significant weather)

 AIRPORT MAP

 RUNWAY INFORMATION
Runway 09 Runway length 4088 ft Runway width 98 ft
Runway elevation 1790 ft Runway displaced threshold 213 ft Runway heading 85
Runway 27 Runway length 4088 ft Runway width 98 ft
Runway elevation 1773 ft Runway displaced threshold 115 ft Runway heading 265

 AIRPORT FREQUENCIES
Type AFIS Name INFO Frequency 119.95 MHZ

 AIRPORT NEAR NAVIGATION AIDS